createdAt,value
2023-02-27T00:00:29.091Z,13.15
2023-02-27T00:03:01.446Z,7.55
2023-02-27T00:05:31.168Z,7.30
2023-02-27T00:08:00.784Z,7.35
2023-02-27T00:10:30.356Z,7.53
2023-02-27T00:12:59.984Z,5.70
2023-02-27T00:15:30.892Z,9.07
2023-02-27T00:18:03.209Z,8.45
2023-02-27T00:20:37.809Z,6.00
2023-02-27T00:23:08.244Z,6.05
2023-02-27T00:25:38.389Z,10.48
2023-02-27T00:28:08.021Z,9.07
2023-02-27T00:30:37.651Z,7.47
2023-02-27T00:33:10.586Z,8.13
2023-02-27T00:35:40.184Z,9.43
2023-02-27T00:38:09.838Z,7.15
2023-02-27T00:40:39.437Z,10.02
2023-02-27T00:43:09.030Z,5.43
2023-02-27T00:45:38.586Z,6.57
2023-02-27T00:48:10.796Z,7.18
2023-02-27T00:50:40.952Z,5.10
2023-02-27T00:53:10.591Z,6.07
2023-02-27T00:55:40.186Z,6.05
2023-02-27T00:58:09.775Z,6.38
2023-02-27T01:00:39.384Z,9.10
2023-02-27T01:03:11.588Z,9.00
2023-02-27T01:05:41.198Z,7.28
2023-02-27T01:08:11.553Z,6.25
2023-02-27T01:10:41.174Z,6.28
2023-02-27T01:13:11.368Z,7.28
2023-02-27T01:15:41.058Z,6.22
2023-02-27T01:18:14.554Z,8.15
2023-02-27T01:20:44.175Z,6.47
2023-02-27T01:23:16.061Z,9.70
2023-02-27T01:25:45.666Z,7.03
2023-02-27T01:28:15.287Z,7.47
2023-02-27T01:30:46.695Z,10.10
2023-02-27T01:33:20.336Z,10.20
2023-02-27T01:35:49.989Z,8.88
2023-02-27T01:38:19.723Z,6.97
2023-02-27T01:40:49.682Z,8.75
2023-02-27T01:43:21.279Z,7.72
2023-02-27T01:45:51.203Z,7.10
2023-02-27T01:48:26.551Z,9.65
2023-02-27T01:50:59.489Z,7.25
2023-02-27T01:53:30.046Z,9.25
2023-02-27T01:56:02.425Z,7.97
2023-02-27T01:58:33.124Z,8.32
2023-02-27T02:01:03.005Z,9.48
2023-02-27T02:03:38.653Z,6.30
2023-02-27T02:06:10.252Z,10.07
2023-02-27T02:08:42.840Z,9.75
2023-02-27T02:11:13.667Z,6.95
2023-02-27T02:13:44.257Z,8.90
2023-02-27T02:16:40.821Z,8.98
2023-02-27T02:19:37.260Z,9.75
2023-02-27T02:22:41.526Z,8.85
2023-02-27T02:25:31.534Z,6.40
2023-02-27T02:28:10.051Z,10.05
2023-02-27T02:31:06.718Z,9.68
2023-02-27T02:33:58.202Z,6.28
2023-02-27T02:36:51.893Z,11.20
2023-02-27T02:39:58.952Z,5.95
2023-02-27T02:42:35.937Z,6.28
2023-02-27T02:45:13.695Z,6.88
2023-02-27T02:47:49.644Z,5.68
2023-02-27T02:50:27.994Z,7.18
2023-02-27T02:53:05.237Z,5.90
2023-02-27T02:55:37.817Z,7.90
2023-02-27T02:58:13.728Z,8.27
2023-02-27T03:00:48.478Z,6.72
2023-02-27T03:03:25.395Z,9.55
2023-02-27T03:05:59.987Z,7.85
2023-02-27T03:08:33.145Z,9.85
2023-02-27T03:11:04.415Z,10.23
2023-02-27T03:13:39.052Z,7.72
2023-02-27T03:16:13.674Z,7.70
2023-02-27T03:18:47.218Z,9.48
2023-02-27T03:21:22.740Z,8.38
2023-02-27T03:23:53.565Z,6.80
2023-02-27T03:26:27.714Z,8.55
2023-02-27T03:29:04.832Z,6.88
2023-02-27T03:31:37.419Z,7.03
2023-02-27T03:34:11.953Z,7.78
2023-02-27T03:36:47.530Z,8.73
2023-02-27T03:39:25.440Z,9.88
2023-02-27T03:41:58.103Z,11.05
2023-02-27T03:44:58.482Z,23.58
2023-02-27T03:47:28.174Z,10.20
2023-02-27T03:49:58.546Z,7.45
2023-02-27T03:52:29.764Z,12.88
2023-02-27T03:55:02.661Z,8.85
2023-02-27T03:57:32.312Z,8.57
2023-02-27T04:00:06.098Z,13.25
2023-02-27T04:02:44.475Z,12.95
2023-02-27T04:05:16.236Z,12.43
2023-02-27T04:08:04.534Z,10.45
2023-02-27T04:10:56.820Z,9.55
2023-02-27T04:13:47.122Z,13.82
2023-02-27T04:16:38.746Z,9.13
2023-02-27T04:19:19.935Z,15.60
2023-02-27T04:21:55.018Z,22.95
2023-02-27T04:24:37.134Z,9.45
2023-02-27T04:27:11.670Z,7.95
2023-02-27T04:29:47.240Z,10.82
2023-02-27T04:32:22.741Z,11.38
2023-02-27T04:34:55.622Z,12.88
2023-02-27T04:37:27.708Z,9.95
2023-02-27T04:40:00.529Z,10.48
2023-02-27T04:42:33.482Z,6.72
2023-02-27T04:45:07.280Z,9.32
2023-02-27T04:47:43.394Z,11.63
2023-02-27T04:50:19.525Z,8.57
2023-02-27T04:52:54.437Z,13.45
2023-02-27T04:55:26.916Z,8.32
2023-02-27T04:57:58.459Z,10.15
2023-02-27T05:00:30.172Z,7.72
2023-02-27T05:03:04.351Z,10.60
2023-02-27T05:08:06.899Z,9.40
2023-02-27T05:10:39.843Z,10.55
2023-02-27T05:13:12.877Z,12.63
2023-02-27T05:15:47.004Z,11.13
2023-02-27T05:20:56.052Z,11.45
2023-02-27T05:23:36.023Z,10.88
2023-02-27T05:26:12.535Z,14.35
2023-02-27T05:28:48.849Z,11.77
2023-02-27T05:31:23.604Z,14.15
2023-02-27T05:34:00.729Z,14.95
2023-02-27T05:36:34.369Z,15.27
2023-02-27T05:39:06.249Z,15.63
2023-02-27T05:41:39.045Z,12.60
2023-02-27T05:44:11.700Z,10.20
2023-02-27T05:46:45.473Z,9.23
2023-02-27T05:49:20.856Z,12.38
2023-02-27T05:51:53.551Z,11.30
2023-02-27T05:54:27.458Z,13.40
2023-02-27T05:56:57.749Z,12.20
2023-02-27T05:59:31.552Z,12.77
2023-02-27T06:02:01.206Z,12.05
2023-02-27T06:04:33.486Z,14.80
2023-02-27T06:07:06.438Z,12.77
2023-02-27T06:09:37.786Z,11.65
2023-02-27T06:12:07.622Z,12.35
2023-02-27T06:14:37.232Z,12.32
2023-02-27T06:17:06.908Z,13.10
2023-02-27T06:19:39.176Z,14.35
2023-02-27T06:22:08.741Z,11.48
2023-02-27T06:24:38.501Z,15.20
2023-02-27T06:27:08.156Z,11.68
2023-02-27T06:29:37.808Z,15.13
2023-02-27T06:32:07.586Z,21.60
2023-02-27T06:34:39.811Z,22.40
2023-02-27T06:37:09.398Z,22.77
2023-02-27T06:39:39.222Z,13.40
2023-02-27T06:42:09.247Z,16.05
2023-02-27T06:44:38.847Z,22.02
2023-02-27T06:47:08.561Z,21.38
2023-02-27T06:49:40.763Z,15.80
2023-02-27T06:52:10.814Z,18.40
2023-02-27T06:54:40.498Z,16.25
2023-02-27T06:57:10.124Z,17.10
2023-02-27T06:59:39.730Z,16.63
2023-02-27T07:02:09.569Z,14.77
2023-02-27T07:04:41.803Z,16.77
2023-02-27T07:07:35.413Z,9.88
2023-02-27T07:10:01.481Z,11.48
2023-02-27T07:12:31.098Z,13.70
2023-02-27T07:15:00.762Z,16.70
2023-02-27T07:17:31.693Z,11.15
2023-02-27T07:20:04.316Z,10.95
2023-02-27T07:22:33.894Z,11.20
2023-02-27T07:25:03.497Z,13.85
2023-02-27T07:27:33.529Z,8.48
2023-02-27T07:30:03.147Z,9.32
2023-02-27T07:32:32.765Z,12.98
2023-02-27T07:35:05.417Z,9.65
2023-02-27T07:37:35.022Z,13.45
2023-02-27T07:40:05.567Z,13.60
2023-02-27T07:42:35.414Z,11.07
2023-02-27T07:45:05.026Z,9.65
2023-02-27T07:47:34.647Z,7.93
2023-02-27T07:50:07.177Z,10.60
2023-02-27T07:52:36.784Z,8.77
2023-02-27T07:55:06.555Z,9.32
2023-02-27T07:57:36.225Z,11.02
2023-02-27T08:00:07.043Z,12.32
2023-02-27T08:02:41.777Z,9.32
2023-02-27T08:05:15.146Z,6.80
2023-02-27T08:07:44.724Z,9.73
2023-02-27T08:10:16.735Z,6.75
2023-02-27T08:12:46.391Z,6.47
2023-02-27T08:15:17.236Z,5.07
2023-02-27T08:17:48.248Z,5.97
2023-02-27T08:20:24.309Z,4.60
2023-02-27T08:22:54.157Z,4.78
2023-02-27T08:25:24.050Z,4.82
2023-02-27T08:27:53.647Z,4.22
2023-02-27T08:30:23.457Z,5.28
2023-02-27T08:32:53.109Z,5.47
2023-02-27T08:35:25.297Z,3.58
2023-02-27T08:37:54.884Z,3.47
2023-02-27T08:40:24.544Z,3.85
2023-02-27T08:42:54.371Z,5.20
2023-02-27T08:45:24.000Z,5.32
2023-02-27T08:47:53.631Z,6.78
2023-02-27T08:50:25.810Z,3.65
2023-02-27T08:52:55.472Z,4.93
2023-02-27T08:55:25.097Z,4.32
2023-02-27T08:57:54.740Z,4.68
2023-02-27T09:00:26.879Z,4.30
2023-02-27T09:02:56.755Z,4.00
2023-02-27T09:05:29.082Z,4.72
2023-02-27T09:07:58.761Z,4.80
2023-02-27T09:10:28.341Z,3.10
2023-02-27T09:12:57.921Z,4.00
2023-02-27T09:15:27.882Z,3.72
2023-02-27T09:18:02.854Z,4.03
2023-02-27T09:20:36.164Z,3.22
2023-02-27T09:23:06.243Z,4.10
2023-02-27T09:25:35.809Z,4.28
2023-02-27T09:28:05.626Z,3.92
2023-02-27T09:30:35.697Z,2.92
2023-02-27T09:33:05.268Z,2.92
2023-02-27T09:35:37.512Z,3.30
2023-02-27T09:38:07.192Z,5.25
2023-02-27T09:40:43.062Z,2.97
2023-02-27T09:43:14.662Z,3.47
2023-02-27T09:45:44.658Z,3.35
2023-02-27T09:48:18.686Z,4.35
2023-02-27T09:53:31.191Z,4.53
2023-02-27T09:56:10.138Z,4.00
2023-02-27T09:58:48.967Z,6.57
2023-02-27T10:01:22.918Z,5.50
2023-02-27T10:04:16.133Z,4.50
2023-02-27T10:06:51.140Z,4.78
2023-02-27T10:09:32.287Z,3.72
2023-02-27T10:12:16.292Z,3.95
2023-02-27T10:14:48.440Z,3.83
2023-02-27T10:17:22.912Z,2.90
2023-02-27T10:19:54.183Z,4.82
2023-02-27T10:22:30.926Z,4.32
2023-02-27T10:25:03.694Z,3.63
2023-02-27T10:27:34.411Z,2.83
2023-02-27T10:30:30.289Z,3.55
2023-02-27T10:33:08.941Z,5.25
2023-02-27T10:35:40.652Z,4.68
2023-02-27T10:38:16.397Z,2.40
2023-02-27T10:40:47.006Z,5.18
2023-02-27T10:43:19.477Z,3.83
2023-02-27T10:45:49.184Z,2.30
2023-02-27T10:48:21.000Z,5.75
2023-02-27T10:50:52.937Z,4.35
2023-02-27T10:53:26.538Z,2.17
2023-02-27T10:56:04.816Z,5.75
2023-02-27T10:58:37.100Z,5.13
2023-02-27T11:01:08.186Z,3.95
2023-02-27T11:03:41.548Z,7.75
2023-02-27T11:06:14.333Z,6.60
2023-02-27T11:08:46.531Z,5.88
2023-02-27T11:11:16.469Z,4.78
2023-02-27T11:13:47.045Z,7.22
2023-02-27T11:16:20.924Z,7.15
2023-02-27T11:18:51.567Z,6.22
2023-02-27T11:21:25.163Z,2.88
2023-02-27T11:24:00.046Z,6.25
2023-02-27T11:26:33.118Z,4.70
2023-02-27T11:29:19.017Z,3.00
2023-02-27T11:31:51.658Z,3.40
2023-02-27T11:34:33.205Z,7.20
2023-02-27T11:37:04.972Z,2.58
2023-02-27T11:39:40.177Z,5.28
2023-02-27T11:42:19.641Z,3.70
2023-02-27T11:44:58.689Z,3.33
2023-02-27T11:47:31.495Z,5.47
2023-02-27T11:50:35.333Z,4.90
2023-02-27T11:53:22.691Z,4.43
2023-02-27T11:55:55.589Z,7.45
2023-02-27T11:58:29.004Z,3.80
2023-02-27T12:01:01.052Z,2.53
2023-02-27T12:03:36.721Z,4.53
2023-02-27T12:06:08.006Z,4.65
2023-02-27T12:08:42.716Z,4.00
2023-02-27T12:11:28.261Z,4.15
2023-02-27T12:14:04.051Z,3.65
2023-02-27T12:16:37.419Z,2.90
2023-02-27T12:19:13.566Z,2.90
2023-02-27T12:21:45.082Z,5.72
2023-02-27T12:24:20.929Z,2.90
2023-02-27T12:26:58.456Z,11.52
2023-02-27T12:29:31.628Z,3.85
2023-02-27T12:32:05.077Z,2.40
2023-02-27T12:34:40.303Z,3.97
2023-02-27T12:37:15.297Z,3.72
2023-02-27T12:39:48.143Z,2.80
2023-02-27T12:42:44.829Z,2.67
2023-02-27T12:45:28.257Z,3.50
2023-02-27T12:48:03.842Z,2.67
2023-02-27T12:50:47.948Z,3.03
2023-02-27T12:53:29.708Z,4.53
2023-02-27T12:56:05.432Z,3.35
2023-02-27T12:58:45.327Z,2.90
2023-02-27T13:01:26.770Z,3.28
2023-02-27T13:04:00.221Z,3.10
2023-02-27T13:06:37.230Z,2.57
2023-02-27T13:09:16.250Z,4.32
2023-02-27T13:11:53.442Z,2.75
2023-02-27T13:14:33.302Z,6.05
2023-02-27T13:17:07.240Z,6.32
2023-02-27T13:19:39.710Z,4.65
2023-02-27T13:22:15.387Z,5.82
2023-02-27T13:24:49.293Z,2.95
2023-02-27T13:27:26.960Z,4.38
2023-02-27T13:30:08.518Z,5.90
2023-02-27T13:32:44.759Z,4.53
2023-02-27T13:35:28.073Z,7.93
2023-02-27T13:38:01.679Z,3.40
2023-02-27T13:40:33.688Z,3.80
2023-02-27T13:43:06.429Z,3.90
2023-02-27T13:46:09.001Z,5.18
2023-02-27T13:48:40.546Z,3.20
2023-02-27T13:51:59.896Z,6.50
2023-02-27T13:54:36.440Z,4.85
2023-02-27T13:57:21.445Z,2.33
2023-02-27T13:59:56.168Z,4.28
2023-02-27T14:02:58.186Z,2.15
2023-02-27T14:05:32.884Z,2.70
2023-02-27T14:08:08.247Z,4.40
2023-02-27T14:10:39.070Z,6.38
2023-02-27T14:13:24.594Z,2.60
2023-02-27T14:16:00.936Z,6.65
2023-02-27T14:18:54.799Z,2.22
2023-02-27T14:21:54.472Z,3.97
2023-02-27T14:24:27.444Z,2.40
2023-02-27T14:26:57.269Z,6.68
2023-02-27T14:29:31.256Z,5.03
2023-02-27T14:32:02.834Z,2.97
2023-02-27T14:34:35.134Z,3.20
2023-02-27T14:37:08.716Z,4.38
2023-02-27T14:39:39.685Z,4.32
2023-02-27T14:42:23.569Z,4.45
2023-02-27T14:44:53.986Z,3.05
2023-02-27T14:47:28.421Z,6.22
2023-02-27T14:50:01.164Z,5.22
2023-02-27T14:52:32.789Z,3.67
2023-02-27T14:55:15.568Z,2.80
2023-02-27T14:57:56.497Z,4.20
2023-02-27T15:00:34.944Z,4.65
2023-02-27T15:03:12.315Z,2.70
2023-02-27T15:05:44.708Z,2.33
2023-02-27T15:08:18.726Z,7.30
2023-02-27T15:10:48.659Z,3.10
2023-02-27T15:13:27.259Z,3.78
2023-02-27T15:16:38.525Z,4.43
2023-02-27T15:19:17.444Z,4.82
2023-02-27T15:21:52.469Z,3.45
2023-02-27T15:24:25.604Z,4.75
2023-02-27T15:26:58.290Z,5.32
2023-02-27T15:29:30.857Z,3.00
2023-02-27T15:32:00.506Z,5.38
2023-02-27T15:34:30.802Z,5.43
2023-02-27T15:37:03.560Z,4.65
2023-02-27T15:39:34.472Z,5.60
2023-02-27T15:42:06.008Z,5.72
2023-02-27T15:44:38.858Z,7.43
2023-02-27T15:47:09.649Z,3.78
2023-02-27T15:49:39.720Z,4.25
2023-02-27T15:52:20.064Z,4.40
2023-02-27T15:54:51.351Z,6.25
2023-02-27T15:57:22.251Z,3.80
2023-02-27T15:59:52.609Z,5.60
2023-02-27T16:02:26.436Z,6.75
2023-02-27T16:04:56.178Z,3.10
2023-02-27T16:07:30.102Z,4.20
2023-02-27T16:10:03.845Z,4.00
2023-02-27T16:12:36.851Z,4.18
2023-02-27T16:15:32.914Z,4.00
2023-02-27T16:18:28.513Z,5.30
2023-02-27T16:21:11.291Z,4.30
2023-02-27T16:23:43.924Z,6.22
2023-02-27T16:26:31.765Z,5.82
2023-02-27T16:29:03.876Z,5.53
2023-02-27T16:31:35.525Z,6.90
2023-02-27T16:34:17.094Z,4.95
2023-02-27T16:36:55.865Z,8.43
2023-02-27T16:39:28.424Z,7.32
2023-02-27T16:41:59.469Z,9.00
2023-02-27T16:44:30.056Z,3.45
2023-02-27T16:47:00.302Z,4.32
2023-02-27T16:49:33.633Z,4.22
2023-02-27T16:52:05.921Z,4.72
2023-02-27T16:54:38.146Z,5.50
2023-02-27T16:57:07.969Z,5.95
2023-02-27T16:59:39.882Z,6.60
2023-02-27T17:02:13.867Z,6.53
2023-02-27T17:04:46.895Z,17.23
2023-02-27T17:07:18.855Z,5.53
2023-02-27T17:09:51.376Z,4.20
2023-02-27T17:12:20.982Z,5.63
2023-02-27T17:14:50.611Z,6.60
2023-02-27T17:17:20.277Z,5.50
2023-02-27T17:19:49.953Z,5.68
2023-02-27T17:22:19.556Z,4.35
2023-02-27T17:24:52.318Z,4.10
2023-02-27T17:27:21.873Z,4.75
2023-02-27T17:29:52.364Z,6.30
2023-02-27T17:32:21.996Z,4.78
2023-02-27T17:34:51.644Z,6.60
2023-02-27T17:37:21.197Z,4.68
2023-02-27T17:39:53.564Z,5.28
2023-02-27T17:42:25.681Z,4.75
2023-02-27T17:44:55.543Z,6.20
2023-02-27T17:47:25.216Z,6.10
2023-02-27T17:49:54.803Z,6.20
2023-02-27T17:52:24.373Z,8.15
2023-02-27T17:54:56.894Z,6.63
2023-02-27T17:57:26.495Z,7.60
2023-02-27T17:59:56.061Z,5.78
2023-02-27T18:02:25.661Z,6.88
2023-02-27T18:04:55.459Z,6.70
2023-02-27T18:07:25.031Z,8.95
2023-02-27T18:09:57.220Z,13.65
2023-02-27T18:12:26.808Z,8.38
2023-02-27T18:14:56.517Z,10.05
2023-02-27T18:17:26.078Z,11.05
2023-02-27T18:19:55.771Z,9.35
2023-02-27T18:22:25.352Z,7.90
2023-02-27T18:24:58.779Z,19.02
2023-02-27T18:27:28.520Z,14.32
2023-02-27T18:29:58.299Z,7.63
2023-02-27T18:32:28.203Z,8.55
2023-02-27T18:34:57.789Z,10.90
2023-02-27T18:37:27.473Z,13.98
2023-02-27T18:40:00.129Z,15.52
2023-02-27T18:42:29.851Z,11.82
2023-02-27T18:44:59.733Z,9.65
2023-02-27T18:47:30.362Z,8.32
2023-02-27T18:50:00.220Z,7.68
2023-02-27T18:52:30.939Z,9.68
2023-02-27T18:55:03.112Z,7.43
2023-02-27T18:57:32.743Z,9.25
2023-02-27T19:00:02.343Z,6.70
2023-02-27T19:02:31.949Z,6.15
2023-02-27T19:05:03.864Z,5.88
2023-02-27T19:07:33.419Z,8.05
2023-02-27T19:10:06.337Z,6.00
2023-02-27T19:12:35.990Z,12.48
2023-02-27T19:15:05.656Z,13.00
2023-02-27T19:17:35.288Z,14.98
2023-02-27T19:20:06.312Z,11.55
2023-02-27T19:22:36.233Z,9.68
2023-02-27T19:25:09.121Z,8.05
2023-02-27T19:27:39.780Z,10.15
2023-02-27T19:30:11.029Z,9.30
2023-02-27T19:32:40.605Z,9.57
2023-02-27T19:35:14.216Z,8.10
2023-02-27T19:37:43.907Z,9.23
2023-02-27T19:40:18.071Z,11.00
2023-02-27T19:45:16.973Z,9.75
2023-02-27T19:47:47.099Z,8.82
2023-02-27T19:50:16.760Z,9.13
2023-02-27T19:52:46.401Z,10.20
2023-02-27T19:55:18.777Z,8.60
2023-02-27T19:57:49.006Z,9.15
2023-02-27T20:00:20.585Z,10.18
2023-02-27T20:02:50.180Z,10.00
2023-02-27T20:05:20.997Z,12.10
2023-02-27T20:07:50.818Z,8.50
2023-02-27T20:10:23.257Z,8.90
2023-02-27T20:12:52.847Z,7.60
2023-02-27T20:15:22.847Z,9.02
2023-02-27T20:17:52.426Z,12.27
2023-02-27T20:20:22.147Z,7.90
2023-02-27T20:22:52.581Z,9.93
2023-02-27T20:25:25.066Z,8.73
2023-02-27T20:27:54.642Z,8.18
2023-02-27T20:30:24.346Z,8.50
2023-02-27T20:32:55.143Z,10.82
2023-02-27T20:35:24.804Z,9.75
2023-02-27T20:37:54.412Z,9.65
2023-02-27T20:40:28.763Z,8.88
2023-02-27T20:42:58.611Z,7.55
2023-02-27T20:45:28.474Z,7.50
2023-02-27T20:47:58.380Z,8.73
2023-02-27T20:50:27.930Z,9.48
2023-02-27T20:52:57.857Z,10.18
2023-02-27T20:55:30.347Z,13.05
2023-02-27T20:57:59.988Z,14.35
2023-02-27T21:00:29.613Z,9.55
2023-02-27T21:03:00.801Z,11.13
2023-02-27T21:05:30.921Z,13.65
2023-02-27T21:08:00.694Z,12.15
2023-02-27T21:10:33.128Z,14.27
2023-02-27T21:13:02.695Z,12.15
2023-02-27T21:15:32.553Z,10.68
2023-02-27T21:18:02.338Z,10.57
2023-02-27T21:20:32.073Z,9.80
2023-02-27T21:23:01.629Z,13.35
2023-02-27T21:25:33.805Z,10.25
2023-02-27T21:28:03.953Z,10.93
2023-02-27T21:30:33.650Z,7.88
2023-02-27T21:33:04.521Z,12.60
2023-02-27T21:35:34.202Z,12.68
2023-02-27T21:38:05.368Z,10.43
2023-02-27T21:40:37.818Z,10.70
2023-02-27T21:43:07.416Z,13.40
2023-02-27T21:45:41.528Z,9.43
2023-02-27T21:48:11.857Z,13.85
2023-02-27T21:50:41.456Z,9.23
2023-02-27T21:53:11.114Z,10.55
2023-02-27T21:55:43.358Z,13.07
2023-02-27T21:58:13.018Z,11.38
2023-02-27T22:00:43.244Z,11.38
2023-02-27T22:03:12.839Z,11.68
2023-02-27T22:05:43.090Z,11.82
2023-02-27T22:08:13.290Z,10.98
2023-02-27T22:10:45.946Z,13.63
2023-02-27T22:13:15.863Z,16.13
2023-02-27T22:15:45.592Z,12.30
2023-02-27T22:18:15.187Z,10.40
2023-02-27T22:20:44.749Z,11.45
2023-02-27T22:23:14.364Z,10.68
2023-02-27T22:25:47.349Z,9.60
2023-02-27T22:28:16.924Z,9.57
2023-02-27T22:30:48.126Z,7.70
2023-02-27T22:33:17.724Z,10.45
2023-02-27T22:35:47.330Z,7.43
2023-02-27T22:38:16.963Z,11.02
2023-02-27T22:40:49.182Z,8.10
2023-02-27T22:43:19.310Z,7.13
2023-02-27T22:45:48.953Z,10.32
2023-02-27T22:48:18.548Z,7.78
2023-02-27T22:50:48.144Z,6.20
2023-02-27T22:53:17.745Z,4.70
2023-02-27T22:55:55.511Z,4.35
2023-02-27T22:58:25.611Z,4.00
2023-02-27T23:00:56.784Z,4.95
2023-02-27T23:03:26.510Z,5.47
2023-02-27T23:05:56.067Z,5.00
2023-02-27T23:08:25.772Z,5.95
2023-02-27T23:10:57.959Z,5.82
2023-02-27T23:13:27.701Z,6.63
2023-02-27T23:15:57.398Z,5.10
2023-02-27T23:18:27.577Z,4.65
2023-02-27T23:20:57.452Z,3.40
2023-02-27T23:23:27.054Z,7.93
2023-02-27T23:26:02.104Z,4.53
2023-02-27T23:28:31.956Z,4.40
2023-02-27T23:31:02.020Z,6.60
2023-02-27T23:33:32.467Z,7.35
2023-02-27T23:36:02.181Z,6.82
2023-02-27T23:38:32.080Z,4.13
2023-02-27T23:41:07.563Z,4.95
2023-02-27T23:43:37.187Z,3.97
2023-02-27T23:46:10.569Z,10.65
2023-02-27T23:48:40.499Z,14.10
2023-02-27T23:51:11.335Z,5.72
2023-02-27T23:53:42.818Z,5.40
2023-02-27T23:56:20.341Z,7.00
2023-02-27T23:58:51.350Z,9.10
